sensor_id;sensor_type;location;lat;lon;timestamp;temperature;humidity
64715;DHT22;51144;53.002;6.506;2022-11-15T00:00:26;7.90;99.90
64715;DHT22;51144;53.002;6.506;2022-11-15T00:02:52;7.90;99.90
64715;DHT22;51144;53.002;6.506;2022-11-15T00:05:18;7.80;99.90
64715;DHT22;51144;53.002;6.506;2022-11-15T00:07:44;7.80;99.90
64715;DHT22;51144;53.002;6.506;2022-11-15T00:10:09;7.80;99.90
64715;DHT22;51144;53.002;6.506;2022-11-15T00:12:35;7.80;99.90
64715;DHT22;51144;53.002;6.506;2022-11-15T00:15:01;7.80;99.90
64715;DHT22;51144;53.002;6.506;2022-11-15T00:17:27;7.80;99.90
64715;DHT22;51144;53.002;6.506;2022-11-15T00:19:52;7.80;99.90
64715;DHT22;51144;53.002;6.506;2022-11-15T00:22:18;7.80;99.90
64715;DHT22;51144;53.002;6.506;2022-11-15T00:24:43;7.90;99.90
64715;DHT22;51144;53.002;6.506;2022-11-15T00:27:09;7.90;99.90
64715;DHT22;51144;53.002;6.506;2022-11-15T00:29:35;7.90;99.90
64715;DHT22;51144;53.002;6.506;2022-11-15T00:32:02;7.90;99.90
64715;DHT22;51144;53.002;6.506;2022-11-15T00:34:28;7.90;99.90
64715;DHT22;51144;53.002;6.506;2022-11-15T00:36:53;7.90;99.90
64715;DHT22;51144;53.002;6.506;2022-11-15T00:39:19;7.90;99.90
64715;DHT22;51144;53.002;6.506;2022-11-15T00:41:44;8.00;99.90
64715;DHT22;51144;53.002;6.506;2022-11-15T00:44:10;8.00;99.90
64715;DHT22;51144;53.002;6.506;2022-11-15T00:46:36;8.00;99.90
64715;DHT22;51144;53.002;6.506;2022-11-15T00:49:01;8.00;99.90
64715;DHT22;51144;53.002;6.506;2022-11-15T00:51:27;8.00;99.90
64715;DHT22;51144;53.002;6.506;2022-11-15T00:53:52;7.90;99.90
64715;DHT22;51144;53.002;6.506;2022-11-15T00:56:18;7.90;99.90
64715;DHT22;51144;53.002;6.506;2022-11-15T00:58:44;8.00;99.90
64715;DHT22;51144;53.002;6.506;2022-11-15T01:01:11;7.90;99.90
64715;DHT22;51144;53.002;6.506;2022-11-15T01:03:38;8.00;99.90
64715;DHT22;51144;53.002;6.506;2022-11-15T01:06:05;7.90;99.90
64715;DHT22;51144;53.002;6.506;2022-11-15T01:08:31;7.90;99.90
64715;DHT22;51144;53.002;6.506;2022-11-15T01:11:22;7.90;99.90
64715;DHT22;51144;53.002;6.506;2022-11-15T01:13:48;7.90;99.90
64715;DHT22;51144;53.002;6.506;2022-11-15T01:16:16;7.90;99.90
64715;DHT22;51144;53.002;6.506;2022-11-15T01:18:44;7.90;99.90
64715;DHT22;51144;53.002;6.506;2022-11-15T01:21:14;7.90;99.90
64715;DHT22;51144;53.002;6.506;2022-11-15T01:23:40;7.80;99.90
64715;DHT22;51144;53.002;6.506;2022-11-15T01:26:07;7.80;99.90
64715;DHT22;51144;53.002;6.506;2022-11-15T01:28:37;7.80;99.90
64715;DHT22;51144;53.002;6.506;2022-11-15T01:31:06;7.80;99.90
64715;DHT22;51144;53.002;6.506;2022-11-15T01:33:34;7.80;99.90
64715;DHT22;51144;53.002;6.506;2022-11-15T01:36:04;7.80;99.90
64715;DHT22;51144;53.002;6.506;2022-11-15T01:38:30;7.80;99.90
64715;DHT22;51144;53.002;6.506;2022-11-15T01:40:56;7.80;99.90
64715;DHT22;51144;53.002;6.506;2022-11-15T01:43:29;7.80;99.90
64715;DHT22;51144;53.002;6.506;2022-11-15T01:45:56;7.80;99.90
64715;DHT22;51144;53.002;6.506;2022-11-15T01:48:29;7.80;99.90
64715;DHT22;51144;53.002;6.506;2022-11-15T01:50:56;7.80;99.90
64715;DHT22;51144;53.002;6.506;2022-11-15T01:53:23;7.80;99.90
64715;DHT22;51144;53.002;6.506;2022-11-15T01:55:51;7.70;99.90
64715;DHT22;51144;53.002;6.506;2022-11-15T01:58:18;7.70;99.90
64715;DHT22;51144;53.002;6.506;2022-11-15T02:00:44;7.70;99.90
64715;DHT22;51144;53.002;6.506;2022-11-15T02:03:09;7.70;99.90
64715;DHT22;51144;53.002;6.506;2022-11-15T02:05:36;7.70;99.90
64715;DHT22;51144;53.002;6.506;2022-11-15T02:08:02;7.70;99.90
64715;DHT22;51144;53.002;6.506;2022-11-15T02:10:28;7.70;99.90
64715;DHT22;51144;53.002;6.506;2022-11-15T02:12:55;7.70;99.90
64715;DHT22;51144;53.002;6.506;2022-11-15T02:15:22;7.70;99.90
64715;DHT22;51144;53.002;6.506;2022-11-15T02:18:10;7.70;99.90
64715;DHT22;51144;53.002;6.506;2022-11-15T02:21:26;7.70;99.90
64715;DHT22;51144;53.002;6.506;2022-11-15T02:29:39;7.70;99.90
64715;DHT22;51144;53.002;6.506;2022-11-15T02:32:18;7.70;99.90
64715;DHT22;51144;53.002;6.506;2022-11-15T02:34:57;7.70;99.90
64715;DHT22;51144;53.002;6.506;2022-11-15T02:40:32;7.70;99.90
64715;DHT22;51144;53.002;6.506;2022-11-15T02:43:11;7.70;99.90
64715;DHT22;51144;53.002;6.506;2022-11-15T02:46:15;7.70;99.90
64715;DHT22;51144;53.002;6.506;2022-11-15T02:48:44;7.80;99.90
64715;DHT22;51144;53.002;6.506;2022-11-15T02:51:11;7.80;99.90
64715;DHT22;51144;53.002;6.506;2022-11-15T02:53:37;7.80;99.90
64715;DHT22;51144;53.002;6.506;2022-11-15T02:56:03;7.80;99.90
64715;DHT22;51144;53.002;6.506;2022-11-15T03:01:28;7.80;99.90
64715;DHT22;51144;53.002;6.506;2022-11-15T03:04:17;7.80;99.90
64715;DHT22;51144;53.002;6.506;2022-11-15T03:06:59;7.90;99.90
64715;DHT22;51144;53.002;6.506;2022-11-15T03:09:45;7.90;99.90
64715;DHT22;51144;53.002;6.506;2022-11-15T03:12:36;7.90;99.90
64715;DHT22;51144;53.002;6.506;2022-11-15T03:15:21;7.90;99.90
64715;DHT22;51144;53.002;6.506;2022-11-15T03:18:02;7.90;99.90
64715;DHT22;51144;53.002;6.506;2022-11-15T03:20:30;7.90;99.90
64715;DHT22;51144;53.002;6.506;2022-11-15T03:23:01;8.00;99.90
64715;DHT22;51144;53.002;6.506;2022-11-15T03:25:28;7.90;99.90
64715;DHT22;51144;53.002;6.506;2022-11-15T03:27:57;8.00;99.90
64715;DHT22;51144;53.002;6.506;2022-11-15T03:30:24;8.00;99.90
64715;DHT22;51144;53.002;6.506;2022-11-15T03:32:54;8.00;99.90
64715;DHT22;51144;53.002;6.506;2022-11-15T03:35:22;8.00;99.90
64715;DHT22;51144;53.002;6.506;2022-11-15T03:38:05;8.00;99.90
64715;DHT22;51144;53.002;6.506;2022-11-15T03:41:00;8.10;99.90
64715;DHT22;51144;53.002;6.506;2022-11-15T03:46:28;8.10;99.90
64715;DHT22;51144;53.002;6.506;2022-11-15T03:49:08;8.10;99.90
64715;DHT22;51144;53.002;6.506;2022-11-15T03:51:34;8.10;99.90
64715;DHT22;51144;53.002;6.506;2022-11-15T03:54:03;8.10;99.90
64715;DHT22;51144;53.002;6.506;2022-11-15T03:56:29;8.10;99.90
64715;DHT22;51144;53.002;6.506;2022-11-15T03:58:54;8.10;99.90
64715;DHT22;51144;53.002;6.506;2022-11-15T04:01:20;8.10;99.90
64715;DHT22;51144;53.002;6.506;2022-11-15T04:03:46;8.10;99.90
64715;DHT22;51144;53.002;6.506;2022-11-15T04:06:11;8.10;99.90
64715;DHT22;51144;53.002;6.506;2022-11-15T04:08:37;8.20;99.90
64715;DHT22;51144;53.002;6.506;2022-11-15T04:11:02;8.20;99.90
64715;DHT22;51144;53.002;6.506;2022-11-15T04:13:28;8.10;99.90
64715;DHT22;51144;53.002;6.506;2022-11-15T04:15:54;8.20;99.90
64715;DHT22;51144;53.002;6.506;2022-11-15T04:18:19;8.20;99.90
64715;DHT22;51144;53.002;6.506;2022-11-15T04:20:45;8.20;99.90
64715;DHT22;51144;53.002;6.506;2022-11-15T04:23:29;8.20;99.90
64715;DHT22;51144;53.002;6.506;2022-11-15T04:26:33;8.20;99.90
64715;DHT22;51144;53.002;6.506;2022-11-15T04:28:59;8.20;99.90
64715;DHT22;51144;53.002;6.506;2022-11-15T04:31:43;8.20;99.90
64715;DHT22;51144;53.002;6.506;2022-11-15T04:34:09;8.30;99.90
64715;DHT22;51144;53.002;6.506;2022-11-15T04:36:34;8.30;99.90
64715;DHT22;51144;53.002;6.506;2022-11-15T04:39:19;8.30;99.90
64715;DHT22;51144;53.002;6.506;2022-11-15T04:41:44;8.30;99.90
64715;DHT22;51144;53.002;6.506;2022-11-15T04:44:10;8.30;99.90
64715;DHT22;51144;53.002;6.506;2022-11-15T04:46:35;8.40;99.90
64715;DHT22;51144;53.002;6.506;2022-11-15T04:49:01;8.40;99.90
64715;DHT22;51144;53.002;6.506;2022-11-15T04:51:27;8.40;99.90
64715;DHT22;51144;53.002;6.506;2022-11-15T04:53:52;8.40;99.90
64715;DHT22;51144;53.002;6.506;2022-11-15T04:56:18;8.40;99.90
64715;DHT22;51144;53.002;6.506;2022-11-15T04:58:44;8.50;99.90
64715;DHT22;51144;53.002;6.506;2022-11-15T05:01:11;8.50;99.90
64715;DHT22;51144;53.002;6.506;2022-11-15T05:03:39;8.60;99.90
64715;DHT22;51144;53.002;6.506;2022-11-15T05:06:23;8.60;99.90
64715;DHT22;51144;53.002;6.506;2022-11-15T05:08:48;8.60;99.90
64715;DHT22;51144;53.002;6.506;2022-11-15T05:11:14;8.60;99.90
64715;DHT22;51144;53.002;6.506;2022-11-15T05:13:39;8.70;99.90
64715;DHT22;51144;53.002;6.506;2022-11-15T05:16:05;8.70;99.90
64715;DHT22;51144;53.002;6.506;2022-11-15T05:18:31;8.70;99.90
64715;DHT22;51144;53.002;6.506;2022-11-15T05:21:04;8.80;99.90
64715;DHT22;51144;53.002;6.506;2022-11-15T05:23:29;8.80;99.90
64715;DHT22;51144;53.002;6.506;2022-11-15T05:25:59;8.80;99.90
64715;DHT22;51144;53.002;6.506;2022-11-15T05:28:25;8.80;99.90
64715;DHT22;51144;53.002;6.506;2022-11-15T05:30:50;8.80;99.90
64715;DHT22;51144;53.002;6.506;2022-11-15T05:33:16;8.90;99.90
64715;DHT22;51144;53.002;6.506;2022-11-15T05:35:46;8.90;99.90
64715;DHT22;51144;53.002;6.506;2022-11-15T05:38:14;8.90;99.90
64715;DHT22;51144;53.002;6.506;2022-11-15T05:40:39;8.90;99.90
64715;DHT22;51144;53.002;6.506;2022-11-15T05:43:05;8.90;99.90
64715;DHT22;51144;53.002;6.506;2022-11-15T05:45:32;9.00;99.90
64715;DHT22;51144;53.002;6.506;2022-11-15T05:48:01;9.00;99.90
64715;DHT22;51144;53.002;6.506;2022-11-15T05:50:28;9.00;99.90
64715;DHT22;51144;53.002;6.506;2022-11-15T05:52:54;9.10;99.90
64715;DHT22;51144;53.002;6.506;2022-11-15T05:55:20;9.10;99.90
64715;DHT22;51144;53.002;6.506;2022-11-15T05:57:46;9.10;99.90
64715;DHT22;51144;53.002;6.506;2022-11-15T06:00:12;9.20;99.90
64715;DHT22;51144;53.002;6.506;2022-11-15T06:02:38;9.20;99.90
64715;DHT22;51144;53.002;6.506;2022-11-15T06:05:04;9.30;99.90
64715;DHT22;51144;53.002;6.506;2022-11-15T06:07:30;9.30;99.90
64715;DHT22;51144;53.002;6.506;2022-11-15T06:09:55;9.40;99.90
64715;DHT22;51144;53.002;6.506;2022-11-15T06:12:21;9.40;99.90
64715;DHT22;51144;53.002;6.506;2022-11-15T06:14:47;9.40;99.90
64715;DHT22;51144;53.002;6.506;2022-11-15T06:17:12;9.40;99.90
64715;DHT22;51144;53.002;6.506;2022-11-15T06:19:38;9.50;99.90
64715;DHT22;51144;53.002;6.506;2022-11-15T06:22:04;9.50;99.90
64715;DHT22;51144;53.002;6.506;2022-11-15T06:24:29;9.50;99.90
64715;DHT22;51144;53.002;6.506;2022-11-15T06:26:55;9.60;99.90
64715;DHT22;51144;53.002;6.506;2022-11-15T06:29:21;9.60;99.90
64715;DHT22;51144;53.002;6.506;2022-11-15T06:31:46;9.60;99.90
64715;DHT22;51144;53.002;6.506;2022-11-15T06:34:12;9.60;99.90
64715;DHT22;51144;53.002;6.506;2022-11-15T06:36:37;9.60;99.90
64715;DHT22;51144;53.002;6.506;2022-11-15T06:39:04;9.70;99.90
64715;DHT22;51144;53.002;6.506;2022-11-15T06:41:30;9.70;99.90
64715;DHT22;51144;53.002;6.506;2022-11-15T06:43:56;9.70;99.90
64715;DHT22;51144;53.002;6.506;2022-11-15T06:46:22;9.70;99.90
64715;DHT22;51144;53.002;6.506;2022-11-15T06:48:50;9.70;99.90
64715;DHT22;51144;53.002;6.506;2022-11-15T06:51:16;9.70;99.90
64715;DHT22;51144;53.002;6.506;2022-11-15T06:53:42;9.80;99.90
64715;DHT22;51144;53.002;6.506;2022-11-15T06:56:08;9.80;99.90
64715;DHT22;51144;53.002;6.506;2022-11-15T06:58:34;9.80;99.90
64715;DHT22;51144;53.002;6.506;2022-11-15T07:01:05;9.80;99.90
64715;DHT22;51144;53.002;6.506;2022-11-15T07:03:31;9.90;99.90
64715;DHT22;51144;53.002;6.506;2022-11-15T07:05:58;9.90;99.90
64715;DHT22;51144;53.002;6.506;2022-11-15T07:08:24;9.90;99.90
64715;DHT22;51144;53.002;6.506;2022-11-15T07:10:52;9.90;99.90
64715;DHT22;51144;53.002;6.506;2022-11-15T07:13:17;10.00;99.90
64715;DHT22;51144;53.002;6.506;2022-11-15T07:15:43;10.00;99.90
64715;DHT22;51144;53.002;6.506;2022-11-15T07:18:09;10.00;99.90
64715;DHT22;51144;53.002;6.506;2022-11-15T07:20:34;10.10;99.90
64715;DHT22;51144;53.002;6.506;2022-11-15T07:23:02;10.10;99.90
64715;DHT22;51144;53.002;6.506;2022-11-15T07:25:27;10.10;99.90
64715;DHT22;51144;53.002;6.506;2022-11-15T07:28:00;10.10;99.90
64715;DHT22;51144;53.002;6.506;2022-11-15T07:30:26;10.10;99.90
64715;DHT22;51144;53.002;6.506;2022-11-15T07:33:01;10.10;99.90
64715;DHT22;51144;53.002;6.506;2022-11-15T07:35:28;10.10;99.90
64715;DHT22;51144;53.002;6.506;2022-11-15T07:37:59;10.10;99.90
64715;DHT22;51144;53.002;6.506;2022-11-15T07:40:26;10.20;99.90
64715;DHT22;51144;53.002;6.506;2022-11-15T07:42:52;10.20;99.90
64715;DHT22;51144;53.002;6.506;2022-11-15T07:45:18;10.20;99.90
64715;DHT22;51144;53.002;6.506;2022-11-15T07:47:47;10.30;99.90
64715;DHT22;51144;53.002;6.506;2022-11-15T07:50:13;10.30;99.90
64715;DHT22;51144;53.002;6.506;2022-11-15T07:52:38;10.30;99.90
64715;DHT22;51144;53.002;6.506;2022-11-15T07:55:04;10.40;99.90
64715;DHT22;51144;53.002;6.506;2022-11-15T07:57:30;10.40;99.90
64715;DHT22;51144;53.002;6.506;2022-11-15T07:59:56;10.40;99.90
64715;DHT22;51144;53.002;6.506;2022-11-15T08:02:21;10.50;99.90
64715;DHT22;51144;53.002;6.506;2022-11-15T08:04:47;10.50;99.90
64715;DHT22;51144;53.002;6.506;2022-11-15T08:07:13;10.50;99.90
64715;DHT22;51144;53.002;6.506;2022-11-15T08:09:38;10.50;99.90
64715;DHT22;51144;53.002;6.506;2022-11-15T08:12:04;10.60;99.90
64715;DHT22;51144;53.002;6.506;2022-11-15T08:14:30;10.60;99.90
64715;DHT22;51144;53.002;6.506;2022-11-15T08:16:56;10.60;99.90
64715;DHT22;51144;53.002;6.506;2022-11-15T08:19:22;10.60;99.90
64715;DHT22;51144;53.002;6.506;2022-11-15T08:21:47;10.60;99.90
64715;DHT22;51144;53.002;6.506;2022-11-15T08:24:14;10.60;99.90
64715;DHT22;51144;53.002;6.506;2022-11-15T08:26:39;10.60;99.90
64715;DHT22;51144;53.002;6.506;2022-11-15T08:29:05;10.60;99.90
64715;DHT22;51144;53.002;6.506;2022-11-15T08:31:33;10.70;99.90
64715;DHT22;51144;53.002;6.506;2022-11-15T08:33:58;10.70;99.90
64715;DHT22;51144;53.002;6.506;2022-11-15T08:36:24;10.70;99.90
64715;DHT22;51144;53.002;6.506;2022-11-15T08:38:49;10.70;99.90
64715;DHT22;51144;53.002;6.506;2022-11-15T08:41:27;10.80;99.90
64715;DHT22;51144;53.002;6.506;2022-11-15T08:43:53;10.80;99.90
64715;DHT22;51144;53.002;6.506;2022-11-15T08:46:19;10.80;99.90
64715;DHT22;51144;53.002;6.506;2022-11-15T08:48:44;10.90;99.90
64715;DHT22;51144;53.002;6.506;2022-11-15T08:51:10;10.90;99.90
64715;DHT22;51144;53.002;6.506;2022-11-15T08:53:36;10.90;99.90
64715;DHT22;51144;53.002;6.506;2022-11-15T08:56:01;10.90;99.90
64715;DHT22;51144;53.002;6.506;2022-11-15T08:58:28;10.90;99.90
64715;DHT22;51144;53.002;6.506;2022-11-15T09:00:53;10.90;99.90
64715;DHT22;51144;53.002;6.506;2022-11-15T09:03:19;11.00;99.90
64715;DHT22;51144;53.002;6.506;2022-11-15T09:05:45;11.00;99.90
64715;DHT22;51144;53.002;6.506;2022-11-15T09:08:11;11.00;99.90
64715;DHT22;51144;53.002;6.506;2022-11-15T09:10:38;11.10;99.90
64715;DHT22;51144;53.002;6.506;2022-11-15T09:13:03;11.10;99.90
64715;DHT22;51144;53.002;6.506;2022-11-15T09:15:29;11.10;99.90
64715;DHT22;51144;53.002;6.506;2022-11-15T09:17:58;11.10;99.90
64715;DHT22;51144;53.002;6.506;2022-11-15T09:20:25;11.10;99.90
64715;DHT22;51144;53.002;6.506;2022-11-15T09:22:50;11.10;99.90
64715;DHT22;51144;53.002;6.506;2022-11-15T09:25:16;11.20;99.90
64715;DHT22;51144;53.002;6.506;2022-11-15T09:27:41;11.20;99.90
64715;DHT22;51144;53.002;6.506;2022-11-15T09:30:07;11.30;99.90
64715;DHT22;51144;53.002;6.506;2022-11-15T09:32:33;11.30;99.90
64715;DHT22;51144;53.002;6.506;2022-11-15T09:34:58;11.30;99.90
64715;DHT22;51144;53.002;6.506;2022-11-15T09:37:24;11.40;99.90
64715;DHT22;51144;53.002;6.506;2022-11-15T09:39:50;11.30;99.90
64715;DHT22;51144;53.002;6.506;2022-11-15T09:50:17;11.40;99.90
64715;DHT22;51144;53.002;6.506;2022-11-15T09:52:45;11.40;99.90
64715;DHT22;51144;53.002;6.506;2022-11-15T09:55:12;11.50;99.90
64715;DHT22;51144;53.002;6.506;2022-11-15T09:57:52;11.50;99.90
64715;DHT22;51144;53.002;6.506;2022-11-15T10:00:28;11.60;99.90
64715;DHT22;51144;53.002;6.506;2022-11-15T10:05:42;11.60;99.90
64715;DHT22;51144;53.002;6.506;2022-11-15T10:08:37;11.70;99.90
64715;DHT22;51144;53.002;6.506;2022-11-15T10:11:09;11.70;99.90
64715;DHT22;51144;53.002;6.506;2022-11-15T10:13:40;11.70;99.90
64715;DHT22;51144;53.002;6.506;2022-11-15T10:24:44;11.70;99.90
64715;DHT22;51144;53.002;6.506;2022-11-15T10:27:13;11.70;99.90
64715;DHT22;51144;53.002;6.506;2022-11-15T10:29:49;11.70;99.90
64715;DHT22;51144;53.002;6.506;2022-11-15T10:32:17;11.70;99.90
64715;DHT22;51144;53.002;6.506;2022-11-15T10:34:43;11.70;99.90
64715;DHT22;51144;53.002;6.506;2022-11-15T10:37:09;11.70;99.90
64715;DHT22;51144;53.002;6.506;2022-11-15T10:39:35;11.80;99.90
64715;DHT22;51144;53.002;6.506;2022-11-15T10:42:27;11.80;99.90
64715;DHT22;51144;53.002;6.506;2022-11-15T10:44:53;11.90;99.90
64715;DHT22;51144;53.002;6.506;2022-11-15T10:50:04;12.10;99.90
64715;DHT22;51144;53.002;6.506;2022-11-15T10:52:31;12.10;99.90
64715;DHT22;51144;53.002;6.506;2022-11-15T10:57:49;12.10;99.90
64715;DHT22;51144;53.002;6.506;2022-11-15T11:03:06;12.10;99.90
64715;DHT22;51144;53.002;6.506;2022-11-15T11:05:37;12.20;99.90
64715;DHT22;51144;53.002;6.506;2022-11-15T11:08:17;12.40;99.90
64715;DHT22;51144;53.002;6.506;2022-11-15T11:11:01;12.60;99.90
64715;DHT22;51144;53.002;6.506;2022-11-15T11:13:32;12.80;99.90
64715;DHT22;51144;53.002;6.506;2022-11-15T11:16:21;13.20;99.90
64715;DHT22;51144;53.002;6.506;2022-11-15T11:21:26;14.20;99.90
64715;DHT22;51144;53.002;6.506;2022-11-15T11:24:01;14.20;99.90
64715;DHT22;51144;53.002;6.506;2022-11-15T11:26:49;13.90;99.90
64715;DHT22;51144;53.002;6.506;2022-11-15T11:32:28;14.30;99.90
64715;DHT22;51144;53.002;6.506;2022-11-15T11:35:16;14.70;99.90
64715;DHT22;51144;53.002;6.506;2022-11-15T11:37:46;14.80;99.90
64715;DHT22;51144;53.002;6.506;2022-11-15T11:45:42;14.10;99.90
64715;DHT22;51144;53.002;6.506;2022-11-15T11:48:38;14.00;99.90
64715;DHT22;51144;53.002;6.506;2022-11-15T11:51:25;13.80;99.90
64715;DHT22;51144;53.002;6.506;2022-11-15T11:54:13;13.60;99.90
64715;DHT22;51144;53.002;6.506;2022-11-15T11:56:43;13.40;99.90
64715;DHT22;51144;53.002;6.506;2022-11-15T11:59:44;13.40;99.90
64715;DHT22;51144;53.002;6.506;2022-11-15T12:02:40;13.60;99.90
64715;DHT22;51144;53.002;6.506;2022-11-15T12:05:18;13.70;99.90
64715;DHT22;51144;53.002;6.506;2022-11-15T12:07:46;13.80;99.90
64715;DHT22;51144;53.002;6.506;2022-11-15T12:10:30;13.70;99.90
64715;DHT22;51144;53.002;6.506;2022-11-15T12:13:15;13.50;99.90
64715;DHT22;51144;53.002;6.506;2022-11-15T12:16:08;13.40;99.90
64715;DHT22;51144;53.002;6.506;2022-11-15T12:18:36;13.30;99.90
64715;DHT22;51144;53.002;6.506;2022-11-15T12:21:08;13.20;99.90
64715;DHT22;51144;53.002;6.506;2022-11-15T12:23:46;13.20;99.90
64715;DHT22;51144;53.002;6.506;2022-11-15T12:26:26;13.10;99.90
64715;DHT22;51144;53.002;6.506;2022-11-15T12:28:58;13.20;99.90
64715;DHT22;51144;53.002;6.506;2022-11-15T12:31:43;13.20;99.90
64715;DHT22;51144;53.002;6.506;2022-11-15T12:34:34;13.20;99.90
64715;DHT22;51144;53.002;6.506;2022-11-15T12:37:02;13.30;99.90
64715;DHT22;51144;53.002;6.506;2022-11-15T12:42:56;13.50;99.90
64715;DHT22;51144;53.002;6.506;2022-11-15T12:45:31;13.50;99.90
64715;DHT22;51144;53.002;6.506;2022-11-15T12:53:29;13.50;99.90
64715;DHT22;51144;53.002;6.506;2022-11-15T12:58:59;13.40;99.90
64715;DHT22;51144;53.002;6.506;2022-11-15T13:06:57;13.40;99.90
64715;DHT22;51144;53.002;6.506;2022-11-15T13:12:01;13.50;99.90
64715;DHT22;51144;53.002;6.506;2022-11-15T13:17:23;13.50;99.90
64715;DHT22;51144;53.002;6.506;2022-11-15T13:25:40;13.50;99.90
64715;DHT22;51144;53.002;6.506;2022-11-15T13:33:36;13.30;99.90
64715;DHT22;51144;53.002;6.506;2022-11-15T13:36:22;13.30;99.90
64715;DHT22;51144;53.002;6.506;2022-11-15T13:41:50;13.20;99.90
64715;DHT22;51144;53.002;6.506;2022-11-15T13:44:22;13.20;99.90
64715;DHT22;51144;53.002;6.506;2022-11-15T13:46:48;13.10;99.90
64715;DHT22;51144;53.002;6.506;2022-11-15T13:49:13;13.10;99.90
64715;DHT22;51144;53.002;6.506;2022-11-15T13:51:52;13.10;99.90
64715;DHT22;51144;53.002;6.506;2022-11-15T13:54:50;13.10;99.90
64715;DHT22;51144;53.002;6.506;2022-11-15T13:57:25;13.10;99.90
64715;DHT22;51144;53.002;6.506;2022-11-15T14:00:03;13.00;99.90
64715;DHT22;51144;53.002;6.506;2022-11-15T14:02:32;13.00;99.90
64715;DHT22;51144;53.002;6.506;2022-11-15T14:05:04;13.00;99.90
64715;DHT22;51144;53.002;6.506;2022-11-15T14:07:31;13.00;99.90
64715;DHT22;51144;53.002;6.506;2022-11-15T14:09:57;12.90;99.90
64715;DHT22;51144;53.002;6.506;2022-11-15T14:12:32;12.90;99.90
64715;DHT22;51144;53.002;6.506;2022-11-15T14:14:59;12.90;99.90
64715;DHT22;51144;53.002;6.506;2022-11-15T14:19:54;12.80;99.90
64715;DHT22;51144;53.002;6.506;2022-11-15T14:22:25;12.80;99.90
64715;DHT22;51144;53.002;6.506;2022-11-15T14:27:39;12.70;99.90
64715;DHT22;51144;53.002;6.506;2022-11-15T14:30:05;12.70;99.90
64715;DHT22;51144;53.002;6.506;2022-11-15T14:32:47;12.60;99.90
64715;DHT22;51144;53.002;6.506;2022-11-15T14:35:16;12.50;99.90
64715;DHT22;51144;53.002;6.506;2022-11-15T14:37:42;12.50;99.90
64715;DHT22;51144;53.002;6.506;2022-11-15T14:40:11;12.50;99.90
64715;DHT22;51144;53.002;6.506;2022-11-15T14:42:37;12.40;99.90
64715;DHT22;51144;53.002;6.506;2022-11-15T14:45:10;12.30;99.90
64715;DHT22;51144;53.002;6.506;2022-11-15T14:47:37;12.30;99.90
64715;DHT22;51144;53.002;6.506;2022-11-15T14:50:03;12.30;99.90
64715;DHT22;51144;53.002;6.506;2022-11-15T14:52:30;12.20;99.90
64715;DHT22;51144;53.002;6.506;2022-11-15T14:55:00;12.20;99.90
64715;DHT22;51144;53.002;6.506;2022-11-15T14:57:27;12.20;99.90
64715;DHT22;51144;53.002;6.506;2022-11-15T14:59:53;12.10;99.90
64715;DHT22;51144;53.002;6.506;2022-11-15T15:02:21;12.10;99.90
64715;DHT22;51144;53.002;6.506;2022-11-15T15:04:48;12.00;99.90
64715;DHT22;51144;53.002;6.506;2022-11-15T15:07:14;12.00;99.90
64715;DHT22;51144;53.002;6.506;2022-11-15T15:09:41;11.90;99.90
64715;DHT22;51144;53.002;6.506;2022-11-15T15:12:22;11.90;99.90
64715;DHT22;51144;53.002;6.506;2022-11-15T15:14:49;11.90;99.90
64715;DHT22;51144;53.002;6.506;2022-11-15T15:17:16;11.80;99.90
64715;DHT22;51144;53.002;6.506;2022-11-15T15:19:42;11.80;99.90
64715;DHT22;51144;53.002;6.506;2022-11-15T15:22:16;11.80;99.90
64715;DHT22;51144;53.002;6.506;2022-11-15T15:24:43;11.70;99.90
64715;DHT22;51144;53.002;6.506;2022-11-15T15:27:09;11.70;99.90
64715;DHT22;51144;53.002;6.506;2022-11-15T15:29:35;11.70;99.90
64715;DHT22;51144;53.002;6.506;2022-11-15T15:32:01;11.70;99.90
64715;DHT22;51144;53.002;6.506;2022-11-15T15:34:26;11.70;99.90
64715;DHT22;51144;53.002;6.506;2022-11-15T15:37:27;11.70;99.90
64715;DHT22;51144;53.002;6.506;2022-11-15T15:39:54;11.70;99.90
64715;DHT22;51144;53.002;6.506;2022-11-15T15:42:21;11.70;99.90
64715;DHT22;51144;53.002;6.506;2022-11-15T15:44:47;11.70;99.90
64715;DHT22;51144;53.002;6.506;2022-11-15T15:47:16;11.70;99.90
64715;DHT22;51144;53.002;6.506;2022-11-15T15:49:42;11.80;99.90
64715;DHT22;51144;53.002;6.506;2022-11-15T15:52:08;11.80;99.90
64715;DHT22;51144;53.002;6.506;2022-11-15T15:54:33;11.80;99.90
64715;DHT22;51144;53.002;6.506;2022-11-15T15:56:59;11.70;99.90
64715;DHT22;51144;53.002;6.506;2022-11-15T15:59:24;11.70;99.90
64715;DHT22;51144;53.002;6.506;2022-11-15T16:01:50;11.70;99.90
64715;DHT22;51144;53.002;6.506;2022-11-15T16:04:16;11.70;99.90
64715;DHT22;51144;53.002;6.506;2022-11-15T16:06:42;11.70;99.90
64715;DHT22;51144;53.002;6.506;2022-11-15T16:09:14;11.70;99.90
64715;DHT22;51144;53.002;6.506;2022-11-15T16:11:41;11.70;99.90
64715;DHT22;51144;53.002;6.506;2022-11-15T16:14:07;11.60;99.90
64715;DHT22;51144;53.002;6.506;2022-11-15T16:16:34;11.60;99.90
64715;DHT22;51144;53.002;6.506;2022-11-15T16:19:00;11.60;99.90
64715;DHT22;51144;53.002;6.506;2022-11-15T16:21:26;11.60;99.90
64715;DHT22;51144;53.002;6.506;2022-11-15T16:23:52;11.50;99.90
64715;DHT22;51144;53.002;6.506;2022-11-15T16:26:21;11.60;99.90
64715;DHT22;51144;53.002;6.506;2022-11-15T16:28:47;11.60;99.90
64715;DHT22;51144;53.002;6.506;2022-11-15T16:31:13;11.60;99.90
64715;DHT22;51144;53.002;6.506;2022-11-15T16:33:39;11.60;99.90
64715;DHT22;51144;53.002;6.506;2022-11-15T16:36:10;11.60;99.90
64715;DHT22;51144;53.002;6.506;2022-11-15T16:38:37;11.60;99.90
64715;DHT22;51144;53.002;6.506;2022-11-15T16:41:04;11.60;99.90
64715;DHT22;51144;53.002;6.506;2022-11-15T16:43:30;11.60;99.90
64715;DHT22;51144;53.002;6.506;2022-11-15T16:45:55;11.60;99.90
64715;DHT22;51144;53.002;6.506;2022-11-15T16:48:27;11.60;99.90
64715;DHT22;51144;53.002;6.506;2022-11-15T16:50:57;11.70;99.90
64715;DHT22;51144;53.002;6.506;2022-11-15T16:53:24;11.60;99.90
64715;DHT22;51144;53.002;6.506;2022-11-15T16:55:50;11.60;99.90
64715;DHT22;51144;53.002;6.506;2022-11-15T16:58:15;11.70;99.90
64715;DHT22;51144;53.002;6.506;2022-11-15T17:00:41;11.70;99.90
64715;DHT22;51144;53.002;6.506;2022-11-15T17:03:06;11.70;99.90
64715;DHT22;51144;53.002;6.506;2022-11-15T17:05:32;11.70;99.90
64715;DHT22;51144;53.002;6.506;2022-11-15T17:07:58;11.70;99.90
64715;DHT22;51144;53.002;6.506;2022-11-15T17:10:25;11.70;99.90
64715;DHT22;51144;53.002;6.506;2022-11-15T17:12:51;11.70;99.90
64715;DHT22;51144;53.002;6.506;2022-11-15T17:15:18;11.70;99.90
64715;DHT22;51144;53.002;6.506;2022-11-15T17:17:44;11.70;99.90
64715;DHT22;51144;53.002;6.506;2022-11-15T17:20:17;11.70;99.90
64715;DHT22;51144;53.002;6.506;2022-11-15T17:22:42;11.80;99.90
64715;DHT22;51144;53.002;6.506;2022-11-15T17:25:08;11.70;99.90
64715;DHT22;51144;53.002;6.506;2022-11-15T17:27:34;11.80;99.90